sensor_id;sensor_type;location;lat;lon;timestamp;pressure;altitude;pressure_sealevel;temperature;humidity
13013;BME280;22580;57.670;12.006;2023-04-23T00:01:57;100326.28;;;22.58;27.74
13013;BME280;22580;57.670;12.006;2023-04-23T00:04:25;100335.56;;;22.14;28.27
13013;BME280;22580;57.670;12.006;2023-04-23T00:06:54;100328.53;;;22.05;28.44
13013;BME280;22580;57.670;12.006;2023-04-23T00:09:22;100311.00;;;22.08;28.53
13013;BME280;22580;57.670;12.006;2023-04-23T00:11:51;100305.63;;;22.00;28.45
13013;BME280;22580;57.670;12.006;2023-04-23T00:14:18;100285.28;;;21.96;28.61
13013;BME280;22580;57.670;12.006;2023-04-23T00:16:46;100284.19;;;21.90;28.67
13013;BME280;22580;57.670;12.006;2023-04-23T00:19:13;100266.38;;;21.66;28.61
13013;BME280;22580;57.670;12.006;2023-04-23T00:21:40;100250.44;;;21.27;29.05
13013;BME280;22580;57.670;12.006;2023-04-23T00:24:07;100280.56;;;21.83;28.64
13013;BME280;22580;57.670;12.006;2023-04-23T00:26:34;100278.22;;;22.01;28.31
13013;BME280;22580;57.670;12.006;2023-04-23T00:29:02;100247.25;;;21.59;28.63
13013;BME280;22580;57.670;12.006;2023-04-23T00:31:29;100266.19;;;22.10;28.12
13013;BME280;22580;57.670;12.006;2023-04-23T00:33:56;100254.69;;;22.36;27.92
13013;BME280;22580;57.670;12.006;2023-04-23T00:36:23;100257.38;;;22.30;27.61
13013;BME280;22580;57.670;12.006;2023-04-23T00:38:51;100239.22;;;22.37;27.64
13013;BME280;22580;57.670;12.006;2023-04-23T00:41:18;100234.16;;;21.91;28.08
13013;BME280;22580;57.670;12.006;2023-04-23T00:43:46;100223.06;;;21.29;28.95
13013;BME280;22580;57.670;12.006;2023-04-23T00:46:15;100218.81;;;21.83;28.29
13013;BME280;22580;57.670;12.006;2023-04-23T00:48:43;100220.88;;;22.24;27.61
13013;BME280;22580;57.670;12.006;2023-04-23T00:51:11;100204.63;;;21.88;27.72
13013;BME280;22580;57.670;12.006;2023-04-23T00:53:39;100221.72;;;22.24;27.68
13013;BME280;22580;57.670;12.006;2023-04-23T00:56:06;100210.13;;;22.16;27.51
13013;BME280;22580;57.670;12.006;2023-04-23T00:58:37;100215.88;;;22.28;27.28
13013;BME280;22580;57.670;12.006;2023-04-23T01:01:04;100217.00;;;21.90;27.52
13013;BME280;22580;57.670;12.006;2023-04-23T01:03:34;100224.25;;;22.26;27.37
13013;BME280;22580;57.670;12.006;2023-04-23T01:06:02;100234.75;;;21.86;27.82
13013;BME280;22580;57.670;12.006;2023-04-23T01:08:30;100247.44;;;21.79;27.93
13013;BME280;22580;57.670;12.006;2023-04-23T01:10:58;100246.22;;;21.82;27.79
13013;BME280;22580;57.670;12.006;2023-04-23T01:13:26;100247.44;;;21.58;27.96
13013;BME280;22580;57.670;12.006;2023-04-23T01:15:54;100255.53;;;21.94;27.69
13013;BME280;22580;57.670;12.006;2023-04-23T01:18:22;100261.13;;;21.86;28.11
13013;BME280;22580;57.670;12.006;2023-04-23T01:20:50;100254.91;;;21.35;30.46
13013;BME280;22580;57.670;12.006;2023-04-23T01:23:19;100211.34;;;21.28;31.29
13013;BME280;22580;57.670;12.006;2023-04-23T01:25:46;100227.03;;;21.47;31.93
13013;BME280;22580;57.670;12.006;2023-04-23T01:28:14;100243.44;;;21.97;32.31
13013;BME280;22580;57.670;12.006;2023-04-23T01:30:42;100242.94;;;21.65;34.33
13013;BME280;22580;57.670;12.006;2023-04-23T01:33:10;100230.94;;;21.23;34.03
13013;BME280;22580;57.670;12.006;2023-04-23T01:35:38;100237.13;;;20.88;34.50
13013;BME280;22580;57.670;12.006;2023-04-23T01:38:08;100222.81;;;20.79;34.14
13013;BME280;22580;57.670;12.006;2023-04-23T01:40:37;100213.78;;;21.23;34.07
13013;BME280;22580;57.670;12.006;2023-04-23T01:43:05;100229.53;;;20.98;34.48
13013;BME280;22580;57.670;12.006;2023-04-23T01:45:32;100198.78;;;21.27;33.89
13013;BME280;22580;57.670;12.006;2023-04-23T01:47:59;100208.44;;;21.30;34.17
13013;BME280;22580;57.670;12.006;2023-04-23T01:50:26;100225.59;;;21.01;33.91
13013;BME280;22580;57.670;12.006;2023-04-23T01:52:54;100227.75;;;20.90;34.71
13013;BME280;22580;57.670;12.006;2023-04-23T01:55:21;100210.69;;;21.11;35.09
13013;BME280;22580;57.670;12.006;2023-04-23T01:57:51;100188.75;;;21.13;34.07
13013;BME280;22580;57.670;12.006;2023-04-23T02:00:18;100181.47;;;20.99;34.68
13013;BME280;22580;57.670;12.006;2023-04-23T02:02:45;100190.84;;;21.47;33.84
13013;BME280;22580;57.670;12.006;2023-04-23T02:05:15;100211.09;;;21.44;34.02
13013;BME280;22580;57.670;12.006;2023-04-23T02:07:43;100191.88;;;21.46;34.10
13013;BME280;22580;57.670;12.006;2023-04-23T02:10:11;100193.50;;;21.40;33.69
13013;BME280;22580;57.670;12.006;2023-04-23T02:12:38;100187.72;;;21.14;33.53
13013;BME280;22580;57.670;12.006;2023-04-23T02:15:08;100194.00;;;21.72;32.77
13013;BME280;22580;57.670;12.006;2023-04-23T02:17:36;100185.28;;;21.55;33.08
13013;BME280;22580;57.670;12.006;2023-04-23T02:20:06;100197.84;;;21.56;33.32
13013;BME280;22580;57.670;12.006;2023-04-23T02:22:34;100194.88;;;21.51;33.22
13013;BME280;22580;57.670;12.006;2023-04-23T02:25:01;100191.94;;;21.52;33.11
13013;BME280;22580;57.670;12.006;2023-04-23T02:27:28;100185.56;;;21.24;33.79
13013;BME280;22580;57.670;12.006;2023-04-23T02:29:55;100156.78;;;21.51;33.35
13013;BME280;22580;57.670;12.006;2023-04-23T02:32:23;100152.97;;;21.45;33.65
13013;BME280;22580;57.670;12.006;2023-04-23T02:34:51;100145.00;;;20.57;34.89
13013;BME280;22580;57.670;12.006;2023-04-23T02:37:18;100155.03;;;21.22;33.95
13013;BME280;22580;57.670;12.006;2023-04-23T02:39:45;100169.88;;;21.62;33.36
13013;BME280;22580;57.670;12.006;2023-04-23T02:42:12;100152.25;;;21.58;33.35
13013;BME280;22580;57.670;12.006;2023-04-23T02:44:39;100161.94;;;21.67;33.59
13013;BME280;22580;57.670;12.006;2023-04-23T02:47:06;100155.03;;;21.65;33.25
13013;BME280;22580;57.670;12.006;2023-04-23T02:49:34;100155.53;;;21.75;33.59
13013;BME280;22580;57.670;12.006;2023-04-23T02:52:02;100117.88;;;21.50;32.86
13013;BME280;22580;57.670;12.006;2023-04-23T02:54:29;100108.88;;;21.50;33.07
13013;BME280;22580;57.670;12.006;2023-04-23T02:56:56;100129.34;;;21.74;33.47
13013;BME280;22580;57.670;12.006;2023-04-23T02:59:23;100127.84;;;21.92;33.04
13013;BME280;22580;57.670;12.006;2023-04-23T03:01:50;100093.41;;;21.78;33.33
13013;BME280;22580;57.670;12.006;2023-04-23T03:04:18;100123.47;;;22.19;33.05
13013;BME280;22580;57.670;12.006;2023-04-23T03:06:47;100120.94;;;22.18;33.44
13013;BME280;22580;57.670;12.006;2023-04-23T03:09:14;100109.50;;;22.01;33.31
13013;BME280;22580;57.670;12.006;2023-04-23T03:11:42;100108.00;;;22.27;33.16
13013;BME280;22580;57.670;12.006;2023-04-23T03:14:09;100068.84;;;21.65;33.94
13013;BME280;22580;57.670;12.006;2023-04-23T03:16:36;100107.16;;;21.70;34.23
13013;BME280;22580;57.670;12.006;2023-04-23T03:19:03;100068.75;;;21.52;34.54
13013;BME280;22580;57.670;12.006;2023-04-23T03:21:30;100093.00;;;21.81;34.11
13013;BME280;22580;57.670;12.006;2023-04-23T03:23:59;100094.63;;;21.76;34.18
13013;BME280;22580;57.670;12.006;2023-04-23T03:26:26;100065.81;;;21.81;33.53
13013;BME280;22580;57.670;12.006;2023-04-23T03:28:54;100070.84;;;21.84;33.55
13013;BME280;22580;57.670;12.006;2023-04-23T03:31:22;100082.56;;;22.06;33.42
13013;BME280;22580;57.670;12.006;2023-04-23T03:34:00;100058.94;;;21.85;33.50
13013;BME280;22580;57.670;12.006;2023-04-23T03:36:28;100069.81;;;21.85;33.77
13013;BME280;22580;57.670;12.006;2023-04-23T03:38:56;100068.75;;;22.08;33.26
13013;BME280;22580;57.670;12.006;2023-04-23T03:41:25;100066.97;;;22.28;32.84
13013;BME280;22580;57.670;12.006;2023-04-23T03:43:52;100040.06;;;22.12;32.83
13013;BME280;22580;57.670;12.006;2023-04-23T03:46:19;100058.34;;;21.90;33.25
13013;BME280;22580;57.670;12.006;2023-04-23T03:48:46;100061.88;;;21.90;33.42
13013;BME280;22580;57.670;12.006;2023-04-23T03:51:13;100072.56;;;21.92;33.71
13013;BME280;22580;57.670;12.006;2023-04-23T03:53:40;100032.91;;;21.76;33.50
13013;BME280;22580;57.670;12.006;2023-04-23T03:56:08;100062.69;;;22.12;33.79
13013;BME280;22580;57.670;12.006;2023-04-23T03:58:36;100046.06;;;22.01;34.65
13013;BME280;22580;57.670;12.006;2023-04-23T04:01:03;100054.06;;;21.81;34.67
13013;BME280;22580;57.670;12.006;2023-04-23T04:03:31;100045.38;;;21.92;34.57
13013;BME280;22580;57.670;12.006;2023-04-23T04:05:57;100042.00;;;21.90;35.74
13013;BME280;22580;57.670;12.006;2023-04-23T04:08:24;100054.69;;;21.76;37.73
13013;BME280;22580;57.670;12.006;2023-04-23T04:10:54;100059.78;;;21.58;39.59
13013;BME280;22580;57.670;12.006;2023-04-23T04:13:21;100045.06;;;21.24;40.73
13013;BME280;22580;57.670;12.006;2023-04-23T04:15:49;100047.41;;;21.27;41.94
13013;BME280;22580;57.670;12.006;2023-04-23T04:18:16;100043.09;;;21.18;42.53
13013;BME280;22580;57.670;12.006;2023-04-23T04:20:43;100035.41;;;21.22;43.20
13013;BME280;22580;57.670;12.006;2023-04-23T04:23:10;100037.97;;;21.09;44.30
13013;BME280;22580;57.670;12.006;2023-04-23T04:25:38;100042.81;;;21.28;44.49
13013;BME280;22580;57.670;12.006;2023-04-23T04:28:06;99995.50;;;21.22;44.61
13013;BME280;22580;57.670;12.006;2023-04-23T04:30:34;100026.44;;;21.21;44.83
13013;BME280;22580;57.670;12.006;2023-04-23T04:33:02;100050.31;;;21.26;45.61
13013;BME280;22580;57.670;12.006;2023-04-23T04:35:29;100045.94;;;21.10;46.54
13013;BME280;22580;57.670;12.006;2023-04-23T04:37:56;100053.31;;;21.16;45.77
13013;BME280;22580;57.670;12.006;2023-04-23T04:40:23;100057.59;;;21.04;46.09
13013;BME280;22580;57.670;12.006;2023-04-23T04:42:51;100045.16;;;21.16;46.01
13013;BME280;22580;57.670;12.006;2023-04-23T04:45:19;100038.41;;;21.27;46.62
13013;BME280;22580;57.670;12.006;2023-04-23T04:47:47;100032.25;;;21.40;46.89
13013;BME280;22580;57.670;12.006;2023-04-23T04:50:16;100006.72;;;21.19;46.77
13013;BME280;22580;57.670;12.006;2023-04-23T04:52:43;100024.56;;;21.22;45.04
13013;BME280;22580;57.670;12.006;2023-04-23T04:55:11;100007.63;;;20.84;45.79
13013;BME280;22580;57.670;12.006;2023-04-23T04:57:38;100030.09;;;21.14;47.58
13013;BME280;22580;57.670;12.006;2023-04-23T05:00:18;100051.34;;;20.89;47.67
13013;BME280;22580;57.670;12.006;2023-04-23T05:02:47;99991.50;;;20.40;48.51
13013;BME280;22580;57.670;12.006;2023-04-23T05:05:16;99983.06;;;20.49;49.19
13013;BME280;22580;57.670;12.006;2023-04-23T05:07:43;100035.41;;;20.43;51.29
13013;BME280;22580;57.670;12.006;2023-04-23T05:10:11;100038.28;;;19.97;52.69
13013;BME280;22580;57.670;12.006;2023-04-23T05:12:38;100019.19;;;20.50;52.04
13013;BME280;22580;57.670;12.006;2023-04-23T05:15:07;100044.00;;;20.47;52.41
13013;BME280;22580;57.670;12.006;2023-04-23T05:17:44;100037.72;;;20.46;52.89
13013;BME280;22580;57.670;12.006;2023-04-23T05:20:12;100047.56;;;20.47;53.53
13013;BME280;22580;57.670;12.006;2023-04-23T05:22:41;100039.31;;;20.41;54.27
13013;BME280;22580;57.670;12.006;2023-04-23T05:25:10;100042.47;;;20.59;54.29
13013;BME280;22580;57.670;12.006;2023-04-23T05:27:37;100028.06;;;20.58;54.39
13013;BME280;22580;57.670;12.006;2023-04-23T05:30:06;100009.09;;;20.29;54.21
13013;BME280;22580;57.670;12.006;2023-04-23T05:32:35;100003.66;;;20.14;53.57
13013;BME280;22580;57.670;12.006;2023-04-23T05:35:02;100046.06;;;20.45;52.68
13013;BME280;22580;57.670;12.006;2023-04-23T05:37:29;100047.66;;;20.39;52.25
13013;BME280;22580;57.670;12.006;2023-04-23T05:39:58;100047.41;;;20.91;51.51
13013;BME280;22580;57.670;12.006;2023-04-23T05:42:26;100047.16;;;21.08;50.80
13013;BME280;22580;57.670;12.006;2023-04-23T05:44:53;99986.09;;;20.10;54.11
13013;BME280;22580;57.670;12.006;2023-04-23T05:47:23;100000.97;;;20.65;53.14
13013;BME280;22580;57.670;12.006;2023-04-23T05:49:51;100019.03;;;20.73;53.94
13013;BME280;22580;57.670;12.006;2023-04-23T05:52:18;100025.38;;;21.01;53.05
13013;BME280;22580;57.670;12.006;2023-04-23T05:54:45;100034.38;;;21.23;53.29
13013;BME280;22580;57.670;12.006;2023-04-23T05:57:14;100035.72;;;20.91;54.65
13013;BME280;22580;57.670;12.006;2023-04-23T05:59:41;100028.09;;;21.01;54.76
13013;BME280;22580;57.670;12.006;2023-04-23T06:02:09;100023.28;;;21.03;55.03
13013;BME280;22580;57.670;12.006;2023-04-23T06:04:36;100003.44;;;20.60;55.48
13013;BME280;22580;57.670;12.006;2023-04-23T06:07:04;100035.78;;;20.76;57.53
13013;BME280;22580;57.670;12.006;2023-04-23T06:09:31;100042.13;;;21.05;56.84
13013;BME280;22580;57.670;12.006;2023-04-23T06:12:00;100039.53;;;20.97;57.76
13013;BME280;22580;57.670;12.006;2023-04-23T06:14:31;100034.03;;;21.11;57.67
13013;BME280;22580;57.670;12.006;2023-04-23T06:16:58;100017.59;;;21.19;57.93
13013;BME280;22580;57.670;12.006;2023-04-23T06:19:25;100032.88;;;21.20;58.24
13013;BME280;22580;57.670;12.006;2023-04-23T06:21:53;100024.19;;;21.10;59.75
13013;BME280;22580;57.670;12.006;2023-04-23T06:24:20;100033.91;;;21.19;59.96
13013;BME280;22580;57.670;12.006;2023-04-23T06:26:47;100024.19;;;21.10;61.62
13013;BME280;22580;57.670;12.006;2023-04-23T06:29:14;100027.63;;;21.19;61.02
13013;BME280;22580;57.670;12.006;2023-04-23T06:31:44;100002.28;;;20.69;62.23
13013;BME280;22580;57.670;12.006;2023-04-23T06:34:11;100017.66;;;20.83;62.46
13013;BME280;22580;57.670;12.006;2023-04-23T06:36:37;100011.25;;;20.91;63.29
13013;BME280;22580;57.670;12.006;2023-04-23T06:39:05;100011.72;;;20.73;64.35
13013;BME280;22580;57.670;12.006;2023-04-23T06:41:32;100023.97;;;20.48;65.90
13013;BME280;22580;57.670;12.006;2023-04-23T06:43:59;100027.88;;;20.60;66.37
13013;BME280;22580;57.670;12.006;2023-04-23T06:46:29;100027.72;;;20.47;67.83
13013;BME280;22580;57.670;12.006;2023-04-23T06:48:57;100016.66;;;20.48;67.97
13013;BME280;22580;57.670;12.006;2023-04-23T06:51:24;100003.38;;;20.24;69.93
13013;BME280;22580;57.670;12.006;2023-04-23T06:53:52;100023.19;;;20.54;69.69
13013;BME280;22580;57.670;12.006;2023-04-23T06:56:20;99979.34;;;20.21;70.73
13013;BME280;22580;57.670;12.006;2023-04-23T06:58:47;99990.13;;;20.00;73.21
13013;BME280;22580;57.670;12.006;2023-04-23T07:01:14;100020.31;;;20.26;73.66
13013;BME280;22580;57.670;12.006;2023-04-23T07:03:42;99983.44;;;20.32;72.39
13013;BME280;22580;57.670;12.006;2023-04-23T07:06:14;100040.44;;;20.46;72.60
13013;BME280;22580;57.670;12.006;2023-04-23T07:08:42;100017.31;;;20.21;73.94
13013;BME280;22580;57.670;12.006;2023-04-23T07:11:09;100052.88;;;20.11;75.50
13013;BME280;22580;57.670;12.006;2023-04-23T07:13:37;100042.03;;;20.11;75.50
13013;BME280;22580;57.670;12.006;2023-04-23T07:16:04;100024.16;;;20.02;76.70
13013;BME280;22580;57.670;12.006;2023-04-23T07:18:33;100031.09;;;20.19;76.53
13013;BME280;22580;57.670;12.006;2023-04-23T07:21:01;99999.47;;;20.12;76.29
13013;BME280;22580;57.670;12.006;2023-04-23T07:23:30;99964.81;;;19.92;76.92
13013;BME280;22580;57.670;12.006;2023-04-23T07:25:57;100012.19;;;20.11;77.56
13013;BME280;22580;57.670;12.006;2023-04-23T07:28:24;100028.19;;;20.21;77.83
13013;BME280;22580;57.670;12.006;2023-04-23T07:30:51;100005.16;;;20.46;77.07
13013;BME280;22580;57.670;12.006;2023-04-23T07:33:18;100015.72;;;20.56;76.58
13013;BME280;22580;57.670;12.006;2023-04-23T07:35:46;100015.41;;;20.66;76.34
13013;BME280;22580;57.670;12.006;2023-04-23T07:38:12;100013.03;;;20.77;75.47
13013;BME280;22580;57.670;12.006;2023-04-23T07:40:41;100020.91;;;20.93;75.43
13013;BME280;22580;57.670;12.006;2023-04-23T07:43:09;100032.22;;;20.97;75.27
13013;BME280;22580;57.670;12.006;2023-04-23T07:45:38;100037.28;;;20.79;76.47
13013;BME280;22580;57.670;12.006;2023-04-23T07:48:05;100036.63;;;20.77;77.01
13013;BME280;22580;57.670;12.006;2023-04-23T07:50:32;100031.50;;;20.67;77.60
13013;BME280;22580;57.670;12.006;2023-04-23T07:53:00;100030.59;;;20.60;78.36
13013;BME280;22580;57.670;12.006;2023-04-23T07:55:27;100028.25;;;20.27;80.43
13013;BME280;22580;57.670;12.006;2023-04-23T07:57:55;100019.00;;;20.37;80.59
13013;BME280;22580;57.670;12.006;2023-04-23T08:00:23;100030.44;;;20.47;80.58
13013;BME280;22580;57.670;12.006;2023-04-23T08:02:50;100030.59;;;20.60;80.47
13013;BME280;22580;57.670;12.006;2023-04-23T08:05:18;100031.16;;;20.55;80.87
13013;BME280;22580;57.670;12.006;2023-04-23T08:07:47;100026.53;;;20.71;80.39
13013;BME280;22580;57.670;12.006;2023-04-23T08:10:14;100037.53;;;20.33;82.57
13013;BME280;22580;57.670;12.006;2023-04-23T08:12:41;100025.00;;;20.47;82.72
13013;BME280;22580;57.670;12.006;2023-04-23T08:15:10;100039.56;;;20.82;81.62
13013;BME280;22580;57.670;12.006;2023-04-23T08:17:37;100028.53;;;20.83;81.50
13013;BME280;22580;57.670;12.006;2023-04-23T08:20:08;100020.22;;;20.49;82.48
13013;BME280;22580;57.670;12.006;2023-04-23T08:22:52;100039.13;;;20.27;84.85
13013;BME280;22580;57.670;12.006;2023-04-23T08:25:20;100040.44;;;20.17;86.05
13013;BME280;22580;57.670;12.006;2023-04-23T08:27:49;100035.00;;;20.32;85.54
13013;BME280;22580;57.670;12.006;2023-04-23T08:30:17;100037.34;;;20.49;85.56
13013;BME280;22580;57.670;12.006;2023-04-23T08:32:48;100036.22;;;20.58;85.66
13013;BME280;22580;57.670;12.006;2023-04-23T08:35:17;100036.66;;;20.62;85.10
13013;BME280;22580;57.670;12.006;2023-04-23T08:37:44;100019.84;;;20.22;85.65
13013;BME280;22580;57.670;12.006;2023-04-23T08:40:11;100045.41;;;20.28;86.81
13013;BME280;22580;57.670;12.006;2023-04-23T08:42:41;100045.31;;;20.21;86.87
13013;BME280;22580;57.670;12.006;2023-04-23T08:45:11;100019.31;;;19.97;87.20
13013;BME280;22580;57.670;12.006;2023-04-23T08:47:40;100042.88;;;20.26;86.06
13013;BME280;22580;57.670;12.006;2023-04-23T08:50:09;100055.63;;;20.77;84.59
13013;BME280;22580;57.670;12.006;2023-04-23T08:52:40;100067.59;;;19.87;87.65
13013;BME280;22580;57.670;12.006;2023-04-23T08:55:08;100061.31;;;20.16;85.16
13013;BME280;22580;57.670;12.006;2023-04-23T08:57:38;100061.03;;;20.11;84.81
13013;BME280;22580;57.670;12.006;2023-04-23T09:00:07;100066.25;;;19.98;84.33
13013;BME280;22580;57.670;12.006;2023-04-23T09:02:35;100070.19;;;19.81;85.04
13013;BME280;22580;57.670;12.006;2023-04-23T09:05:04;100076.53;;;19.73;84.90
13013;BME280;22580;57.670;12.006;2023-04-23T09:07:33;100036.59;;;19.67;84.63
13013;BME280;22580;57.670;12.006;2023-04-23T09:10:00;100068.91;;;19.31;86.58
13013;BME280;22580;57.670;12.006;2023-04-23T09:12:27;100061.81;;;19.07;86.64
13013;BME280;22580;57.670;12.006;2023-04-23T09:14:55;100082.16;;;18.80;87.94
13013;BME280;22580;57.670;12.006;2023-04-23T09:17:24;100079.16;;;19.21;87.05
13013;BME280;22580;57.670;12.006;2023-04-23T09:19:54;100075.16;;;19.92;85.07
13013;BME280;22580;57.670;12.006;2023-04-23T09:22:41;100087.50;;;19.94;84.38
13013;BME280;22580;57.670;12.006;2023-04-23T09:25:10;100102.50;;;19.22;87.05
13013;BME280;22580;57.670;12.006;2023-04-23T09:27:37;100097.31;;;19.95;83.15
13013;BME280;22580;57.670;12.006;2023-04-23T09:30:07;100091.97;;;18.81;87.18
13013;BME280;22580;57.670;12.006;2023-04-23T09:32:36;100073.63;;;19.14;86.22
13013;BME280;22580;57.670;12.006;2023-04-23T09:35:04;100092.53;;;19.97;85.31
13013;BME280;22580;57.670;12.006;2023-04-23T09:37:32;100088.06;;;20.34;82.65
13013;BME280;22580;57.670;12.006;2023-04-23T09:40:01;100100.84;;;19.67;83.68
13013;BME280;22580;57.670;12.006;2023-04-23T09:42:30;100083.97;;;20.38;82.39
13013;BME280;22580;57.670;12.006;2023-04-23T09:45:01;100097.72;;;20.87;81.93
13013;BME280;22580;57.670;12.006;2023-04-23T09:47:31;100061.63;;;19.09;84.04
13013;BME280;22580;57.670;12.006;2023-04-23T09:49:59;100113.84;;;19.25;85.03
13013;BME280;22580;57.670;12.006;2023-04-23T09:52:26;100103.91;;;19.63;82.22
13013;BME280;22580;57.670;12.006;2023-04-23T09:54:55;100107.72;;;20.21;81.56
13013;BME280;22580;57.670;12.006;2023-04-23T09:57:27;100118.75;;;20.05;81.56
13013;BME280;22580;57.670;12.006;2023-04-23T09:59:56;100114.34;;;20.04;80.53
13013;BME280;22580;57.670;12.006;2023-04-23T10:02:26;100109.88;;;20.70;79.53
13013;BME280;22580;57.670;12.006;2023-04-23T10:04:53;100112.34;;;19.69;80.55
13013;BME280;22580;57.670;12.006;2023-04-23T10:07:21;100117.06;;;20.04;80.28
13013;BME280;22580;57.670;12.006;2023-04-23T10:09:49;100118.16;;;19.95;80.55
13013;BME280;22580;57.670;12.006;2023-04-23T10:12:16;100109.56;;;19.77;80.26
13013;BME280;22580;57.670;12.006;2023-04-23T10:14:47;100108.31;;;19.64;80.21
13013;BME280;22580;57.670;12.006;2023-04-23T10:17:18;100116.19;;;19.74;80.64
13013;BME280;22580;57.670;12.006;2023-04-23T10:19:45;100109.81;;;18.67;84.88
13013;BME280;22580;57.670;12.006;2023-04-23T10:22:15;100115.75;;;18.94;84.01
13013;BME280;22580;57.670;12.006;2023-04-23T10:24:45;100110.22;;;19.33;83.03
13013;BME280;22580;57.670;12.006;2023-04-23T10:27:16;100100.59;;;19.08;81.94
13013;BME280;22580;57.670;12.006;2023-04-23T10:29:46;100104.81;;;19.33;82.21
13013;BME280;22580;57.670;12.006;2023-04-23T10:32:14;100092.88;;;19.42;81.37
13013;BME280;22580;57.670;12.006;2023-04-23T10:34:43;100102.88;;;19.64;80.50
13013;BME280;22580;57.670;12.006;2023-04-23T10:37:16;100086.38;;;19.74;79.08
13013;BME280;22580;57.670;12.006;2023-04-23T10:39:48;100123.66;;;19.49;81.21
13013;BME280;22580;57.670;12.006;2023-04-23T10:42:17;100103.78;;;19.11;81.60
13013;BME280;22580;57.670;12.006;2023-04-23T10:44:45;100119.78;;;19.52;80.78
13013;BME280;22580;57.670;12.006;2023-04-23T10:47:14;100108.38;;;20.23;78.05
13013;BME280;22580;57.670;12.006;2023-04-23T10:49:42;100102.72;;;19.66;79.28
13013;BME280;22580;57.670;12.006;2023-04-23T10:52:12;100101.94;;;20.69;76.88
13013;BME280;22580;57.670;12.006;2023-04-23T10:54:47;100074.25;;;20.44;75.19
13013;BME280;22580;57.670;12.006;2023-04-23T10:57:24;100124.72;;;20.01;76.21
13013;BME280;22580;57.670;12.006;2023-04-23T10:59:54;100122.97;;;19.55;78.62
13013;BME280;22580;57.670;12.006;2023-04-23T11:02:41;100119.00;;;19.81;78.32
13013;BME280;22580;57.670;12.006;2023-04-23T11:05:11;100043.06;;;19.81;76.74
13013;BME280;22580;57.670;12.006;2023-04-23T11:08:01;100109.38;;;19.78;77.37
13013;BME280;22580;57.670;12.006;2023-04-23T11:10:33;100052.78;;;19.15;79.19
13013;BME280;22580;57.670;12.006;2023-04-23T11:13:20;100097.56;;;19.71;77.95
13013;BME280;22580;57.670;12.006;2023-04-23T11:16:13;100109.84;;;19.13;80.14
13013;BME280;22580;57.670;12.006;2023-04-23T11:19:02;100121.34;;;19.84;78.24
13013;BME280;22580;57.670;12.006;2023-04-23T11:22:00;100125.28;;;19.13;80.66
13013;BME280;22580;57.670;12.006;2023-04-23T11:24:33;100121.50;;;18.99;79.69
13013;BME280;22580;57.670;12.006;2023-04-23T11:27:08;100130.22;;;19.78;77.24
13013;BME280;22580;57.670;12.006;2023-04-23T11:29:36;100124.00;;;20.07;74.77
13013;BME280;22580;57.670;12.006;2023-04-23T11:32:06;100132.34;;;19.68;74.67
13013;BME280;22580;57.670;12.006;2023-04-23T11:34:35;100126.41;;;19.87;74.48
13013;BME280;22580;57.670;12.006;2023-04-23T11:37:02;100133.31;;;19.75;76.27
13013;BME280;22580;57.670;12.006;2023-04-23T11:39:31;100131.47;;;18.59;79.35
13013;BME280;22580;57.670;12.006;2023-04-23T11:41:58;100139.31;;;19.39;77.18
13013;BME280;22580;57.670;12.006;2023-04-23T11:44:27;100121.84;;;18.65;77.71
13013;BME280;22580;57.670;12.006;2023-04-23T11:46:58;100131.38;;;19.38;76.04
13013;BME280;22580;57.670;12.006;2023-04-23T11:49:27;100108.28;;;18.65;76.11
13013;BME280;22580;57.670;12.006;2023-04-23T11:51:58;100131.81;;;18.56;77.74
13013;BME280;22580;57.670;12.006;2023-04-23T11:54:26;100127.44;;;19.40;75.56
13013;BME280;22580;57.670;12.006;2023-04-23T11:56:54;100137.34;;;18.79;75.87
13013;BME280;22580;57.670;12.006;2023-04-23T11:59:22;100123.03;;;18.93;74.13
13013;BME280;22580;57.670;12.006;2023-04-23T12:01:52;100147.06;;;19.19;73.10
13013;BME280;22580;57.670;12.006;2023-04-23T12:04:20;100137.03;;;19.28;72.13
13013;BME280;22580;57.670;12.006;2023-04-23T12:06:50;100147.22;;;19.49;72.07
13013;BME280;22580;57.670;12.006;2023-04-23T12:09:19;100137.97;;;19.12;73.62
13013;BME280;22580;57.670;12.006;2023-04-23T12:11:48;100132.53;;;18.89;74.83
13013;BME280;22580;57.670;12.006;2023-04-23T12:14:17;100145.25;;;18.89;75.08
13013;BME280;22580;57.670;12.006;2023-04-23T12:16:46;100137.25;;;19.18;74.16
13013;BME280;22580;57.670;12.006;2023-04-23T12:19:17;100147.59;;;19.69;71.58
13013;BME280;22580;57.670;12.006;2023-04-23T12:21:51;100156.88;;;19.74;71.22
13013;BME280;22580;57.670;12.006;2023-04-23T12:24:21;100156.66;;;20.28;69.41
13013;BME280;22580;57.670;12.006;2023-04-23T12:26:49;100159.00;;;20.31;68.01
13013;BME280;22580;57.670;12.006;2023-04-23T12:29:19;100152.63;;;20.24;67.65
13013;BME280;22580;57.670;12.006;2023-04-23T12:31:46;100148.47;;;19.84;69.56
13013;BME280;22580;57.670;12.006;2023-04-23T12:34:13;100150.34;;;19.83;69.22
13013;BME280;22580;57.670;12.006;2023-04-23T12:36:44;100162.38;;;20.33;68.37
13013;BME280;22580;57.670;12.006;2023-04-23T12:39:21;100149.59;;;20.71;66.76
13013;BME280;22580;57.670;12.006;2023-04-23T12:41:50;100130.72;;;20.84;65.13
13013;BME280;22580;57.670;12.006;2023-04-23T12:44:18;100160.06;;;20.74;65.19
13013;BME280;22580;57.670;12.006;2023-04-23T12:46:49;100165.94;;;20.92;64.73
13013;BME280;22580;57.670;12.006;2023-04-23T12:49:16;100173.47;;;20.61;65.53